createdAt,value
2019-03-15T00:02:26.340Z,3.60
2019-03-15T00:04:54.875Z,4.58
2019-03-15T00:07:23.316Z,4.47
2019-03-15T00:09:51.766Z,4.37
2019-03-15T00:12:20.309Z,5.00
2019-03-15T00:14:48.749Z,4.00
2019-03-15T00:17:17.193Z,4.35
2019-03-15T00:19:45.796Z,3.60
2019-03-15T00:22:14.311Z,4.35
2019-03-15T00:24:42.743Z,4.20
2019-03-15T00:27:11.215Z,4.53
2019-03-15T00:29:39.653Z,5.00
2019-03-15T00:32:08.088Z,4.58
2019-03-15T00:34:55.894Z,4.95
2019-03-15T00:37:24.334Z,4.60
2019-03-15T00:39:52.771Z,4.37
2019-03-15T00:42:21.244Z,4.40
2019-03-15T00:44:49.700Z,4.42
2019-03-15T00:47:18.140Z,4.15
2019-03-15T00:49:47.083Z,4.97
2019-03-15T00:52:15.821Z,4.58
2019-03-15T00:54:44.252Z,4.62
2019-03-15T00:57:12.724Z,4.28
2019-03-15T00:59:41.168Z,4.58
2019-03-15T01:02:09.605Z,4.65
2019-03-15T01:04:38.157Z,4.03
2019-03-15T01:07:06.597Z,3.25
2019-03-15T01:09:35.051Z,3.92
2019-03-15T01:12:03.581Z,3.15
2019-03-15T01:14:32.020Z,3.55
2019-03-15T01:17:00.685Z,2.80
2019-03-15T01:19:29.485Z,3.02
2019-03-15T01:21:57.915Z,2.75
2019-03-15T01:24:26.361Z,2.75
2019-03-15T01:26:54.875Z,2.80
2019-03-15T01:29:23.339Z,2.62
2019-03-15T01:31:51.784Z,2.58
2019-03-15T01:34:20.251Z,3.10
2019-03-15T01:36:48.676Z,3.00
2019-03-15T01:39:17.111Z,2.37
2019-03-15T01:41:45.585Z,3.55
2019-03-15T01:44:14.021Z,3.02
2019-03-15T01:46:42.467Z,3.20
2019-03-15T01:49:11.088Z,3.77
2019-03-15T01:51:39.516Z,2.87
2019-03-15T01:54:07.956Z,2.62
2019-03-15T01:56:36.435Z,2.20
2019-03-15T01:59:04.879Z,2.40
2019-03-15T02:01:33.323Z,2.60
2019-03-15T02:04:01.804Z,1.98
2019-03-15T02:06:30.241Z,1.98
2019-03-15T02:08:58.689Z,1.70
2019-03-15T02:11:27.180Z,1.77
2019-03-15T02:13:55.613Z,1.70
2019-03-15T02:16:24.151Z,1.77
2019-03-15T02:18:52.696Z,1.40
2019-03-15T02:21:21.139Z,1.37
2019-03-15T02:23:49.588Z,1.40
2019-03-15T02:26:18.055Z,1.20
2019-03-15T02:28:46.512Z,1.07
2019-03-15T02:31:15.037Z,1.20
2019-03-15T02:33:43.506Z,1.20
2019-03-15T02:36:11.987Z,1.05
2019-03-15T02:38:40.456Z,1.20
2019-03-15T02:41:09.015Z,1.20
2019-03-15T02:43:37.456Z,1.00
2019-03-15T02:46:05.982Z,1.62
2019-03-15T02:48:34.528Z,1.50
2019-03-15T02:51:02.969Z,1.35
2019-03-15T02:53:31.421Z,1.27
2019-03-15T02:55:59.958Z,1.45
2019-03-15T02:58:28.401Z,1.40
2019-03-15T03:00:56.976Z,1.52
2019-03-15T03:03:25.447Z,1.98
2019-03-15T03:05:53.895Z,1.67
2019-03-15T03:08:22.331Z,1.62
2019-03-15T03:10:50.803Z,1.90
2019-03-15T03:13:19.253Z,1.80
2019-03-15T03:15:47.968Z,1.80
2019-03-15T03:18:16.440Z,2.12
2019-03-15T03:20:44.946Z,2.20
2019-03-15T03:23:13.452Z,2.50
2019-03-15T03:25:41.965Z,1.85
2019-03-15T03:28:10.477Z,2.50
2019-03-15T03:30:38.920Z,2.27
2019-03-15T03:33:07.423Z,2.30
2019-03-15T03:35:35.918Z,2.08
2019-03-15T03:38:04.423Z,2.62
2019-03-15T03:40:32.939Z,2.87
2019-03-15T03:43:01.424Z,2.30
2019-03-15T03:45:29.864Z,2.45
2019-03-15T03:47:58.348Z,2.40
2019-03-15T03:50:26.790Z,3.02
2019-03-15T03:52:55.241Z,2.60
2019-03-15T03:55:23.759Z,2.75
2019-03-15T03:57:52.268Z,2.55
2019-03-15T04:00:20.785Z,2.50
2019-03-15T04:02:49.256Z,2.85
2019-03-15T04:05:17.783Z,3.42
2019-03-15T04:07:46.231Z,3.35
2019-03-15T04:10:14.709Z,3.15
2019-03-15T04:12:43.161Z,3.20
2019-03-15T04:15:12.595Z,3.33
2019-03-15T04:17:41.098Z,3.37
2019-03-15T04:20:11.194Z,3.05
2019-03-15T04:22:39.720Z,3.87
2019-03-15T04:25:09.936Z,3.25
2019-03-15T04:27:59.243Z,3.30
2019-03-15T04:30:27.786Z,3.67
2019-03-15T04:32:56.231Z,3.10
2019-03-15T04:35:24.692Z,4.05
2019-03-15T04:37:53.157Z,3.62
2019-03-15T04:40:21.655Z,3.58
2019-03-15T04:42:50.109Z,3.47
2019-03-15T04:45:18.584Z,3.62
2019-03-15T04:47:47.024Z,4.15
2019-03-15T04:50:15.489Z,3.98
2019-03-15T04:52:43.961Z,3.80
2019-03-15T04:55:12.409Z,3.55
2019-03-15T04:57:40.855Z,4.10
2019-03-15T05:00:12.228Z,3.72
2019-03-15T05:02:41.150Z,3.50
2019-03-15T05:05:09.643Z,4.45
2019-03-15T05:07:38.131Z,4.37
2019-03-15T05:10:27.431Z,3.90
2019-03-15T05:12:58.229Z,3.58
2019-03-15T05:15:26.675Z,4.53
2019-03-15T05:17:55.122Z,4.00
2019-03-15T05:20:23.594Z,3.87
2019-03-15T05:22:52.042Z,4.30
2019-03-15T05:25:20.480Z,4.10
2019-03-15T05:27:48.960Z,4.05
2019-03-15T05:30:17.405Z,3.70
2019-03-15T05:32:45.924Z,4.28
2019-03-15T05:35:14.530Z,4.67
2019-03-15T05:37:42.975Z,3.72
2019-03-15T05:40:11.489Z,3.75
2019-03-15T05:42:40.056Z,3.67
2019-03-15T05:45:11.599Z,3.92
2019-03-15T05:47:40.056Z,3.52
2019-03-15T05:50:11.233Z,4.15
2019-03-15T05:52:39.677Z,5.17
2019-03-15T05:55:11.334Z,3.67
2019-03-15T05:57:39.799Z,4.17
2019-03-15T06:00:12.613Z,3.98
2019-03-15T06:02:41.138Z,3.40
2019-03-15T06:05:10.162Z,3.90
2019-03-15T06:07:38.687Z,3.30
2019-03-15T06:10:12.157Z,3.45
2019-03-15T06:12:40.643Z,3.05
2019-03-15T06:15:10.431Z,3.17
2019-03-15T06:17:38.957Z,4.17
2019-03-15T06:20:13.714Z,2.95
2019-03-15T06:22:42.227Z,3.30
2019-03-15T06:25:11.528Z,3.27
2019-03-15T06:27:39.997Z,3.42
2019-03-15T06:30:17.451Z,2.98
2019-03-15T06:32:45.933Z,2.95
2019-03-15T06:35:14.521Z,3.50
2019-03-15T06:37:43.099Z,2.50
2019-03-15T06:40:13.761Z,2.80
2019-03-15T06:45:11.904Z,2.87
2019-03-15T06:47:40.443Z,2.17
2019-03-15T06:50:09.530Z,2.02
2019-03-15T06:52:37.988Z,1.80
2019-03-15T06:55:08.462Z,2.70
2019-03-15T06:57:37.044Z,2.47
2019-03-15T07:00:28.148Z,2.25
2019-03-15T07:05:24.323Z,2.00
2019-03-15T07:07:52.791Z,1.62
2019-03-15T07:10:21.236Z,1.90
2019-03-15T07:12:49.684Z,1.55
2019-03-15T07:15:18.165Z,1.98
2019-03-15T07:17:46.689Z,1.85
2019-03-15T07:20:36.083Z,2.20
2019-03-15T07:23:04.591Z,1.32
2019-03-15T07:25:33.047Z,1.90
2019-03-15T07:28:01.527Z,1.60
2019-03-15T07:30:30.040Z,1.60
2019-03-15T07:32:58.500Z,1.52
2019-03-15T07:35:27.120Z,1.77
2019-03-15T07:37:55.569Z,1.30
2019-03-15T07:40:24.008Z,1.42
2019-03-15T07:42:52.487Z,1.57
2019-03-15T07:45:21.009Z,1.60
2019-03-15T07:47:49.451Z,1.47
2019-03-15T07:50:18.061Z,1.87
2019-03-15T07:52:46.614Z,1.57
2019-03-15T07:55:15.055Z,1.60
2019-03-15T07:57:43.523Z,1.25
2019-03-15T08:00:16.998Z,1.62
2019-03-15T08:03:06.325Z,1.20
2019-03-15T08:05:35.767Z,1.20
2019-03-15T08:08:04.277Z,1.22
2019-03-15T08:10:32.741Z,1.17
2019-03-15T08:13:01.187Z,1.50
2019-03-15T08:15:29.637Z,1.17
2019-03-15T08:17:58.116Z,1.95
2019-03-15T08:20:26.555Z,1.27
2019-03-15T08:22:55.064Z,0.90
2019-03-15T08:25:23.716Z,1.07
2019-03-15T08:27:52.169Z,1.02
2019-03-15T08:30:20.607Z,1.22
2019-03-15T08:32:49.068Z,1.30
2019-03-15T08:35:17.579Z,0.98
2019-03-15T08:37:46.116Z,1.05
2019-03-15T08:40:15.217Z,0.98
2019-03-15T08:42:43.660Z,1.10
2019-03-15T08:45:14.936Z,1.12
2019-03-15T08:47:43.546Z,1.10
2019-03-15T08:50:16.948Z,1.17
2019-03-15T08:52:45.548Z,1.02
2019-03-15T08:55:34.940Z,1.30
2019-03-15T08:58:13.396Z,1.27
2019-03-15T09:00:34.013Z,1.22
2019-03-15T09:03:02.879Z,1.20
2019-03-15T09:05:31.320Z,1.05
2019-03-15T09:07:59.761Z,1.50
2019-03-15T09:10:28.238Z,1.65
2019-03-15T09:12:56.691Z,1.30
2019-03-15T09:15:25.128Z,1.00
2019-03-15T09:17:53.681Z,1.47
2019-03-15T09:20:22.272Z,1.05
2019-03-15T09:22:50.816Z,1.75
2019-03-15T09:25:20.868Z,1.17
2019-03-15T09:27:49.784Z,1.02
2019-03-15T09:30:23.815Z,1.12
2019-03-15T09:32:48.724Z,1.17
2019-03-15T09:35:17.168Z,1.20
2019-03-15T09:37:47.434Z,1.05
2019-03-15T09:40:18.689Z,0.98
2019-03-15T09:42:47.247Z,1.35
2019-03-15T09:45:17.105Z,1.10
2019-03-15T09:47:45.653Z,1.10
2019-03-15T09:50:50.112Z,1.20
2019-03-15T09:53:06.166Z,1.07
2019-03-15T09:55:34.971Z,0.95
2019-03-15T09:58:03.479Z,0.95
2019-03-15T10:00:32.015Z,1.00
2019-03-15T10:03:00.465Z,1.15
2019-03-15T10:05:28.940Z,1.25
2019-03-15T10:07:57.491Z,1.60
2019-03-15T10:10:26.010Z,1.10
2019-03-15T10:13:05.302Z,1.12
2019-03-15T10:15:26.416Z,1.85
2019-03-15T10:17:54.836Z,1.20
2019-03-15T10:20:23.276Z,1.20
2019-03-15T10:23:05.253Z,1.30
2019-03-15T10:25:22.017Z,1.00
2019-03-15T10:27:50.460Z,0.93
2019-03-15T10:30:20.214Z,1.00
2019-03-15T10:32:48.727Z,1.00
2019-03-15T10:35:17.310Z,2.55
2019-03-15T10:37:45.791Z,1.17
2019-03-15T10:40:21.516Z,1.10
2019-03-15T10:42:50.103Z,1.42
2019-03-15T10:45:18.703Z,2.22
2019-03-15T10:47:47.217Z,1.15
2019-03-15T10:50:17.569Z,0.95
2019-03-15T10:52:46.199Z,0.95
2019-03-15T10:55:15.089Z,0.80
2019-03-15T10:57:43.533Z,1.10
2019-03-15T11:00:16.740Z,1.10
2019-03-15T11:02:45.225Z,1.35
2019-03-15T11:05:13.731Z,1.30
2019-03-15T11:07:42.212Z,1.02
2019-03-15T11:10:11.799Z,1.27
2019-03-15T11:12:40.308Z,0.93
2019-03-15T11:15:13.910Z,1.00
2019-03-15T11:17:42.350Z,1.02
2019-03-15T11:20:11.935Z,1.22
2019-03-15T11:22:40.398Z,1.20
2019-03-15T11:25:10.252Z,1.12
2019-03-15T11:27:38.764Z,0.80
2019-03-15T11:30:10.142Z,1.10
2019-03-15T11:32:38.589Z,1.42
2019-03-15T11:35:09.574Z,0.95
2019-03-15T11:40:19.330Z,1.05
2019-03-15T11:42:48.112Z,0.93
2019-03-15T11:45:16.614Z,1.12
2019-03-15T11:48:01.862Z,1.40
2019-03-15T11:50:22.180Z,1.30
2019-03-15T11:52:50.630Z,0.80
2019-03-15T11:55:24.484Z,0.98
2019-03-15T11:57:52.969Z,1.40
2019-03-15T12:00:21.405Z,1.20
2019-03-15T12:02:49.992Z,1.10
2019-03-15T12:05:18.541Z,1.27
2019-03-15T12:07:47.078Z,1.00
2019-03-15T12:10:16.660Z,1.15
2019-03-15T12:12:45.124Z,0.68
2019-03-15T12:15:14.803Z,0.85
2019-03-15T12:17:43.242Z,0.98
2019-03-15T12:20:12.861Z,0.95
2019-03-15T12:22:41.371Z,1.00
2019-03-15T12:25:10.997Z,1.00
2019-03-15T12:27:39.575Z,1.52
2019-03-15T12:30:10.921Z,1.12
2019-03-15T12:32:39.360Z,1.65
2019-03-15T12:35:10.387Z,1.20
2019-03-15T12:37:38.824Z,1.20
2019-03-15T12:40:12.326Z,0.90
2019-03-15T12:42:40.867Z,1.17
2019-03-15T12:45:10.751Z,1.20
2019-03-15T12:47:39.196Z,1.20
2019-03-15T12:50:10.486Z,1.07
2019-03-15T12:52:47.012Z,1.20
2019-03-15T12:55:11.560Z,0.80
2019-03-15T12:57:40.046Z,1.10
2019-03-15T13:00:19.469Z,1.37
2019-03-15T13:02:47.944Z,1.80
2019-03-15T13:05:16.452Z,2.12
2019-03-15T13:07:44.924Z,1.85
2019-03-15T13:10:15.799Z,1.10
2019-03-15T13:15:15.863Z,1.87
2019-03-15T13:17:44.342Z,1.72
2019-03-15T13:20:17.346Z,2.95
2019-03-15T13:22:45.962Z,1.72
2019-03-15T13:25:14.881Z,1.87
2019-03-15T13:27:43.326Z,2.87
2019-03-15T13:30:18.029Z,1.12
2019-03-15T13:32:46.493Z,1.37
2019-03-15T13:35:15.017Z,1.30
2019-03-15T13:37:43.575Z,1.17
2019-03-15T13:40:21.317Z,1.20
2019-03-15T13:42:49.756Z,1.10
2019-03-15T13:45:18.269Z,1.57
2019-03-15T13:47:46.735Z,0.90
2019-03-15T13:50:16.416Z,1.10
2019-03-15T13:52:44.867Z,1.30
2019-03-15T13:55:13.613Z,1.77
2019-03-15T13:57:42.209Z,1.60
2019-03-15T14:00:15.288Z,1.40
2019-03-15T14:02:43.751Z,1.00
2019-03-15T14:05:12.335Z,3.72
2019-03-15T14:07:40.947Z,1.40
2019-03-15T14:10:48.197Z,1.47
2019-03-15T14:13:04.948Z,0.95
2019-03-15T14:15:33.402Z,1.12
2019-03-15T14:18:01.966Z,1.90
2019-03-15T14:20:30.492Z,2.10
2019-03-15T14:22:58.935Z,1.77
2019-03-15T14:25:28.640Z,0.85
2019-03-15T14:27:57.081Z,1.57
2019-03-15T14:30:44.956Z,1.22
2019-03-15T14:33:14.391Z,1.30
2019-03-15T14:35:42.841Z,1.20
2019-03-15T14:38:11.348Z,1.10
2019-03-15T14:40:40.034Z,1.20
2019-03-15T14:43:08.721Z,1.60
2019-03-15T14:45:37.509Z,1.20
2019-03-15T14:48:05.987Z,0.82
2019-03-15T14:50:34.431Z,1.00
2019-03-15T14:53:02.907Z,0.90
2019-03-15T14:55:31.434Z,1.12
2019-03-15T14:58:19.326Z,1.22
2019-03-15T15:00:47.854Z,1.70
2019-03-15T15:03:16.292Z,1.40
2019-03-15T15:05:47.166Z,1.25
2019-03-15T15:08:14.939Z,1.22
2019-03-15T15:10:43.388Z,1.20
2019-03-15T15:13:11.962Z,1.57
2019-03-15T15:15:40.468Z,1.10
2019-03-15T15:18:08.921Z,1.57
2019-03-15T15:20:37.387Z,1.07
2019-03-15T15:23:05.836Z,1.40
2019-03-15T15:25:34.351Z,1.20
2019-03-15T15:28:04.813Z,1.30
2019-03-15T15:30:33.262Z,1.35
2019-03-15T15:33:01.700Z,1.57
2019-03-15T15:35:30.349Z,1.60
2019-03-15T15:37:58.802Z,1.40
2019-03-15T15:40:27.248Z,1.52
2019-03-15T15:42:55.710Z,1.90
2019-03-15T15:45:24.155Z,1.87
2019-03-15T15:47:52.600Z,1.65
2019-03-15T15:50:21.150Z,1.30
2019-03-15T15:52:49.587Z,1.57
2019-03-15T15:55:18.080Z,1.55
2019-03-15T15:57:46.549Z,1.30
2019-03-15T16:00:16.429Z,1.32
2019-03-15T16:02:45.019Z,1.80
2019-03-15T16:05:13.901Z,1.27
2019-03-15T16:07:42.416Z,1.30
2019-03-15T16:10:12.611Z,1.25
2019-03-15T16:12:41.165Z,1.10
2019-03-15T16:15:12.812Z,1.30
2019-03-15T16:17:41.257Z,1.50
2019-03-15T16:20:30.596Z,1.20
2019-03-15T16:22:59.139Z,1.27
2019-03-15T16:25:27.616Z,1.60
2019-03-15T16:27:56.131Z,1.40
2019-03-15T16:30:24.578Z,1.30
2019-03-15T16:32:53.020Z,1.30
2019-03-15T16:35:21.547Z,1.22
2019-03-15T16:37:49.995Z,1.30
2019-03-15T16:40:18.508Z,1.35
2019-03-15T16:42:46.995Z,1.42
2019-03-15T16:45:23.201Z,1.20
2019-03-15T16:47:51.746Z,1.30
2019-03-15T16:50:20.399Z,1.65
2019-03-15T16:52:48.895Z,1.20
2019-03-15T16:55:17.375Z,1.30
2019-03-15T16:57:45.834Z,1.37
2019-03-15T17:00:15.281Z,1.62
2019-03-15T17:02:43.902Z,1.62
2019-03-15T17:05:34.086Z,1.45
2019-03-15T17:08:02.549Z,1.10
2019-03-15T17:10:30.992Z,1.20
2019-03-15T17:12:59.438Z,1.27
2019-03-15T17:15:28.707Z,1.02
2019-03-15T17:17:57.291Z,1.00
2019-03-15T17:20:25.735Z,0.98
2019-03-15T17:22:54.219Z,1.00
2019-03-15T17:25:22.656Z,1.30
2019-03-15T17:27:51.178Z,1.12
2019-03-15T17:30:19.880Z,1.00
2019-03-15T17:32:48.392Z,1.55
2019-03-15T17:35:20.902Z,0.90
2019-03-15T17:37:49.455Z,1.17
2019-03-15T17:40:38.820Z,1.40
2019-03-15T17:43:08.427Z,1.10
2019-03-15T17:45:36.907Z,1.07
2019-03-15T17:48:05.417Z,1.10
2019-03-15T17:50:33.963Z,0.98
2019-03-15T17:53:02.413Z,1.17
2019-03-15T17:55:30.924Z,0.90
2019-03-15T17:57:59.460Z,0.90
2019-03-15T18:00:49.285Z,1.10
2019-03-15T18:03:21.540Z,1.02
2019-03-15T18:08:16.400Z,1.27
2019-03-15T18:10:45.013Z,1.00
2019-03-15T18:13:13.538Z,1.20
2019-03-15T18:15:41.993Z,1.25
2019-03-15T18:18:10.535Z,1.32
2019-03-15T18:20:38.980Z,1.20
2019-03-15T18:23:07.437Z,1.20
2019-03-15T18:25:35.989Z,0.85
2019-03-15T18:28:04.521Z,1.57
2019-03-15T18:30:33.047Z,1.22
2019-03-15T18:33:01.593Z,0.80
2019-03-15T18:35:34.093Z,1.17
2019-03-15T18:38:00.310Z,1.20
2019-03-15T18:40:28.880Z,0.98
2019-03-15T18:42:57.750Z,0.93
2019-03-15T18:45:26.310Z,1.10
2019-03-15T18:47:54.980Z,1.20
2019-03-15T18:50:27.362Z,1.07
2019-03-15T18:52:55.912Z,1.00
2019-03-15T18:55:24.515Z,0.93
2019-03-15T18:57:53.105Z,1.00
2019-03-15T19:00:22.888Z,1.00
2019-03-15T19:02:51.442Z,1.10
2019-03-15T19:05:19.883Z,1.12
2019-03-15T19:07:48.323Z,1.10
2019-03-15T19:10:17.137Z,1.10
2019-03-15T19:13:06.430Z,0.93
2019-03-15T19:15:34.968Z,1.15
2019-03-15T19:18:03.429Z,1.20
2019-03-15T19:20:31.975Z,0.98
2019-03-15T19:23:00.491Z,1.20
2019-03-15T19:25:29.011Z,1.35
2019-03-15T19:27:57.465Z,1.07
2019-03-15T19:30:26.000Z,1.15
2019-03-15T19:32:54.438Z,1.25
2019-03-15T19:35:22.876Z,1.35
2019-03-15T19:37:51.349Z,1.40
2019-03-15T19:40:20.168Z,1.30
2019-03-15T19:42:48.610Z,1.42
2019-03-15T19:45:17.623Z,1.05
2019-03-15T19:47:46.146Z,1.20
2019-03-15T19:50:16.688Z,1.40
2019-03-15T19:52:45.407Z,1.07
2019-03-15T19:55:14.815Z,1.25
2019-03-15T19:57:43.270Z,1.50
2019-03-15T20:00:19.624Z,1.55
2019-03-15T20:02:48.076Z,1.77
2019-03-15T20:05:16.679Z,1.77
2019-03-15T20:07:45.227Z,1.82
2019-03-15T20:10:16.783Z,2.17
2019-03-15T20:12:45.070Z,2.20
2019-03-15T20:15:14.987Z,2.50
2019-03-15T20:17:43.499Z,1.90
2019-03-15T20:20:19.455Z,1.80
2019-03-15T20:22:47.989Z,1.90
2019-03-15T20:25:16.965Z,1.92
2019-03-15T20:27:45.505Z,2.35
2019-03-15T20:30:22.084Z,1.90
2019-03-15T20:32:48.428Z,1.60
2019-03-15T20:35:16.947Z,1.85
2019-03-15T20:37:45.793Z,1.75
2019-03-15T20:40:14.677Z,1.90
2019-03-15T20:42:43.227Z,2.08
2019-03-15T20:45:21.726Z,1.70
2019-03-15T20:47:50.332Z,1.95
2019-03-15T20:50:18.879Z,1.85
2019-03-15T20:52:47.398Z,1.67
2019-03-15T20:55:15.931Z,2.40
2019-03-15T20:57:44.400Z,1.92
2019-03-15T21:00:17.836Z,1.77
2019-03-15T21:02:46.408Z,1.50
2019-03-15T21:05:14.983Z,1.98
2019-03-15T21:07:44.033Z,2.12
2019-03-15T21:10:34.963Z,1.90
2019-03-15T21:13:03.410Z,2.50
2019-03-15T21:15:31.920Z,2.00
2019-03-15T21:18:00.429Z,2.27
2019-03-15T21:20:28.876Z,1.70
2019-03-15T21:22:57.313Z,1.85
2019-03-15T21:25:25.779Z,2.00
2019-03-15T21:27:54.832Z,2.20
2019-03-15T21:30:24.587Z,2.90
2019-03-15T21:32:53.132Z,2.20
2019-03-15T21:35:21.569Z,2.20
2019-03-15T21:37:50.092Z,1.90
2019-03-15T21:40:19.801Z,2.35
2019-03-15T21:42:48.248Z,1.62
2019-03-15T21:45:16.819Z,2.00
2019-03-15T21:47:45.351Z,1.60
2019-03-15T21:50:20.934Z,1.55
2019-03-15T21:52:49.445Z,1.80
2019-03-15T21:55:17.940Z,1.57
2019-03-15T21:57:46.383Z,1.90
2019-03-15T22:00:19.671Z,1.70
2019-03-15T22:02:48.214Z,1.70
2019-03-15T22:05:16.649Z,1.70
2019-03-15T22:07:45.176Z,1.90
2019-03-15T22:10:15.648Z,1.52
2019-03-15T22:12:44.198Z,1.70
2019-03-15T22:15:15.767Z,1.70
2019-03-15T22:17:44.268Z,1.55
2019-03-15T22:20:14.000Z,1.70
2019-03-15T22:22:42.521Z,1.65
2019-03-15T22:25:11.129Z,1.40
2019-03-15T22:27:39.587Z,1.98
2019-03-15T22:30:34.817Z,1.90
2019-03-15T22:33:03.343Z,1.87
2019-03-15T22:35:31.815Z,1.90
2019-03-15T22:38:00.289Z,2.25
2019-03-15T22:40:28.929Z,2.30
2019-03-15T22:42:57.709Z,2.42
2019-03-15T22:45:26.291Z,3.10
2019-03-15T22:47:54.779Z,3.58
2019-03-15T22:50:23.305Z,4.30
2019-03-15T22:52:51.875Z,3.98
2019-03-15T22:55:20.404Z,4.95
2019-03-15T22:57:59.150Z,4.90
2019-03-15T23:00:21.230Z,5.10
2019-03-15T23:02:49.764Z,5.85
2019-03-15T23:05:18.328Z,5.40
2019-03-15T23:07:46.794Z,6.17
2019-03-15T23:10:15.316Z,5.35
2019-03-15T23:12:43.771Z,6.40
2019-03-15T23:15:13.053Z,5.60
2019-03-15T23:17:41.519Z,4.80
2019-03-15T23:20:11.826Z,4.30
2019-03-15T23:22:40.340Z,4.33
2019-03-15T23:25:09.331Z,3.83
2019-03-15T23:27:38.042Z,3.30
2019-03-15T23:30:12.486Z,3.15
2019-03-15T23:33:00.279Z,3.10
2019-03-15T23:35:28.802Z,2.83
2019-03-15T23:37:57.247Z,2.60
2019-03-15T23:40:25.696Z,2.40
2019-03-15T23:42:54.288Z,2.45
2019-03-15T23:45:22.808Z,2.60
2019-03-15T23:47:51.308Z,2.50
2019-03-15T23:50:19.781Z,2.50
2019-03-15T23:52:48.224Z,2.47
2019-03-15T23:55:16.672Z,2.87
2019-03-15T23:57:45.174Z,5.17
